Weather at Husein Sastranegara International Airport

Public forecast

Using degrees Celsius for public forecast. Weather courtesy of forecast.io.

Current aviation weather report (METAR) for Husein Sastranegara International Airport

Report is more than 6 hours old.

Retrieved 2018/09/04 09:00 UTC (3 years ago):

WICC 040900Z 120/09 KT 9999 FEW018 28/13 Q1014

Closest aviation forecast (TAF) to Husein Sastranegara International Airport

Forecast is more than 12 hours old.

Closest forecast is Kertajati International Airport, 38.3 nm (71.0 km) ENE. Retrieved 2021/10/24 12:20 UTC (1 month ago):

TAF WICA 241100Z 2412/2424 18005KT 8000 BKN020